createdAt,value
2023-05-25T11:40:34.442Z,36.2
2023-05-25T11:46:27.307Z,36.4
2023-05-25T11:52:20.795Z,37
2023-05-25T11:58:42.232Z,37.8
2023-05-25T12:05:05.169Z,38.7
2023-05-25T12:10:56.395Z,39.5
2023-05-25T12:16:32.927Z,40.2
2023-05-25T12:22:26.225Z,40.6
2023-05-25T12:28:28.710Z,41.7
2023-05-25T12:34:20.733Z,42.4
2023-05-25T12:40:15.067Z,43.1
2023-05-25T12:46:07.582Z,43.7
2023-05-25T12:52:00.897Z,44.2
2023-05-25T12:57:52.892Z,44.7
2023-05-25T13:03:44.916Z,45.1
2023-05-25T13:09:36.696Z,45.5
2023-05-25T13:15:13.984Z,45.8
2023-05-25T13:21:09.035Z,46.1
2023-05-25T13:27:00.693Z,46.3
2023-05-25T13:32:53.129Z,46.5
2023-05-25T13:38:44.722Z,46.6
2023-05-25T13:44:22.246Z,46.8
2023-05-25T13:50:31.246Z,46.9
2023-05-25T13:56:06.494Z,46.9
2023-05-25T14:01:57.806Z,46.9
2023-05-25T14:07:50.904Z,46.9
2023-05-25T14:13:46.146Z,46.8
2023-05-25T14:19:33.508Z,46.2
2023-05-25T14:25:35.512Z,45.9
2023-05-25T14:31:13.022Z,45.9
2023-05-25T14:36:50.935Z,45.7
2023-05-25T14:42:43.393Z,45.4
2023-05-25T14:48:49.720Z,45.2
2023-05-25T14:54:27.002Z,44.9
2023-05-25T15:00:05.668Z,42.9
2023-05-25T15:05:42.865Z,36.8
2023-05-25T15:11:33.712Z,35.8
2023-05-25T15:17:25.873Z,35.9
2023-05-25T15:23:17.521Z,32.2
2023-05-25T15:29:15.240Z,25.9
2023-05-25T15:35:25.887Z,22.7
2023-05-25T15:41:01.805Z,22.3
2023-05-25T15:46:53.299Z,21.8
2023-05-25T15:52:45.749Z,21.9
2023-05-25T15:58:39.279Z,22
2023-05-25T16:04:31.460Z,22.1
2023-05-25T16:10:25.047Z,22.1
2023-05-25T16:16:18.693Z,22.1
2023-05-25T16:22:15.618Z,22.2
2023-05-25T16:27:52.210Z,22.1
2023-05-25T16:33:44.338Z,22
2023-05-25T16:39:35.962Z,21.9
2023-05-25T16:45:30.222Z,21.9
2023-05-25T16:51:06.829Z,21.8
2023-05-25T16:57:00.579Z,21.7
2023-05-25T17:02:52.947Z,21.6
2023-05-25T17:08:45.241Z,21.5
2023-05-25T17:14:36.204Z,21.4
2023-05-25T17:20:28.726Z,21
2023-05-25T17:26:04.344Z,20.5
2023-05-25T17:31:43.082Z,20
2023-05-25T17:37:21.029Z,19.5
2023-05-25T17:42:56.605Z,19.1
2023-05-25T17:48:48.479Z,18.6
2023-05-25T18:00:16.761Z,17.9
2023-05-25T18:06:09.669Z,17.6
2023-05-25T18:11:48.026Z,17.4
2023-05-25T18:17:23.474Z,17.1
2023-05-25T18:23:15.281Z,16.9
2023-05-25T18:28:51.423Z,16.7
2023-05-25T18:34:42.682Z,16.5
2023-05-25T18:40:18.951Z,16.3
2023-05-25T18:46:10.786Z,16.1
2023-05-25T18:52:01.491Z,15.9
2023-05-25T18:57:37.696Z,15.8
2023-05-25T19:02:59.156Z,15.6
2023-05-25T19:08:49.470Z,15.5
2023-05-25T19:14:40.886Z,15.4
2023-05-25T19:20:33.920Z,15.3
2023-05-25T19:26:28.032Z,15.2
2023-05-25T19:32:05.986Z,15.1
2023-05-25T19:38:06.918Z,14.9
2023-05-25T19:44:00.065Z,14.9
2023-05-25T19:49:53.252Z,14.8
2023-05-25T19:55:45.939Z,14.6
2023-05-25T20:01:31.963Z,14.6
2023-05-25T20:07:09.551Z,14.4
2023-05-25T20:13:00.747Z,14.4
2023-05-25T20:18:52.224Z,14.3
2023-05-25T20:24:43.734Z,14.2
2023-05-25T20:30:20.096Z,14.1
2023-05-25T20:36:12.388Z,14.1
2023-05-25T20:42:04.665Z,14
2023-05-25T20:47:40.583Z,13.9
2023-05-25T20:52:45.225Z,13.9
2023-05-25T20:58:36.740Z,13.8
2023-05-25T21:04:13.769Z,13.7
2023-05-25T21:10:04.862Z,13.6
2023-05-25T21:15:25.394Z,13.6
2023-05-25T21:21:17.465Z,13.5
2023-05-25T21:26:52.997Z,13.4
2023-05-25T21:32:13.696Z,13.3
2023-05-25T21:37:49.931Z,13.3
2023-05-25T21:48:46.997Z,13.1
2023-05-25T21:54:23.313Z,13
2023-05-25T21:59:59.188Z,12.9
2023-05-25T22:05:38.340Z,12.8
2023-05-25T22:11:15.381Z,12.8
2023-05-25T22:16:50.049Z,12.6
2023-05-25T22:22:41.520Z,12.5
2023-05-25T22:28:17.714Z,12.4
2023-05-25T22:33:54.794Z,12.3
2023-05-25T22:39:14.995Z,12.1
2023-05-25T22:44:50.881Z,11.9
2023-05-25T22:50:11.627Z,11.8
2023-05-25T22:55:47.433Z,11.7
2023-05-25T23:01:08.478Z,11.6
2023-05-25T23:06:30.720Z,11.4
2023-05-25T23:12:22.232Z,11.3
2023-05-25T23:17:43.194Z,11.2
2023-05-25T23:23:04.153Z,11.1
2023-05-25T23:28:40.675Z,10.9
2023-05-25T23:34:01.654Z,10.9
2023-05-25T23:39:40.936Z,10.8
2023-05-25T23:45:32.482Z,10.8
2023-05-25T23:51:09.796Z,10.6
2023-05-25T23:57:01.180Z,10.6
